Pittsburgh, Pennsylvania
Traffic Map
Current Weather Conditions
Pittsburgh, Pennsylvania
Clear
Clear
42°
Feels Like: 36°
Wind Chill: 36° Ceiling: Unl
Heat Index: 42° Visibility: 10mi
Dew Point: 33° Wind: 10mph
Humidity: 70% Direction: 170° (S)
Pressure: 30.01in Gusts: 0mph
Raw Report DataKAGC 201153Z 17009KT 10SM CLR 06/01 A3001 RMK AO2 SLP173 T00560006 10061 20050 56008
Traffic Incident Summary
Active as of:
Severity:
Category:
InformationThere was an issue retrieving the traffic information for this location. Please try a different location or try again shortly.
Advertisements
Track Severe Weather on mobile